createdAt,value
2018-02-17T00:01:56.862Z,102203.63
2018-02-17T00:04:23.053Z,102200.08
2018-02-17T00:06:49.285Z,102201.62
2018-02-17T00:09:15.483Z,102206.22
2018-02-17T00:11:41.620Z,102196.46
2018-02-17T00:14:07.811Z,102198.95
2018-02-17T00:16:34.057Z,102206.52
2018-02-17T00:19:00.257Z,102209.70
2018-02-17T00:21:26.448Z,102211.28
2018-02-17T00:23:52.673Z,102213.70
2018-02-17T00:26:18.942Z,102214.42
2018-02-17T00:28:45.159Z,102216.38
2018-02-17T00:31:11.364Z,102211.84
2018-02-17T00:33:37.588Z,102218.99
2018-02-17T00:36:03.798Z,102208.85
2018-02-17T00:38:30.025Z,102210.45
2018-02-17T00:40:56.255Z,102205.43
2018-02-17T00:43:22.424Z,102205.66
2018-02-17T00:45:48.728Z,102196.93
2018-02-17T00:48:14.907Z,102195.06
2018-02-17T00:50:41.197Z,102195.98
2018-02-17T00:53:07.376Z,102195.45
2018-02-17T00:55:33.545Z,102194.11
2018-02-17T00:57:59.795Z,102198.88
2018-02-17T01:00:25.983Z,102201.05
2018-02-17T01:02:52.145Z,102195.91
2018-02-17T01:05:18.378Z,102189.95
2018-02-17T01:07:44.593Z,102191.74
2018-02-17T01:10:10.779Z,102185.67
2018-02-17T01:12:36.945Z,102184.49
2018-02-17T01:15:03.159Z,102195.82
2018-02-17T01:17:29.396Z,102190.70
2018-02-17T01:19:55.576Z,102171.73
2018-02-17T01:22:21.759Z,102165.25
2018-02-17T01:24:47.916Z,102170.94
2018-02-17T01:27:14.213Z,102162.84
2018-02-17T01:29:40.405Z,102160.89
2018-02-17T01:32:06.576Z,102159.70
2018-02-17T01:34:32.743Z,102147.32
2018-02-17T01:36:58.998Z,102146.62
2018-02-17T01:39:25.558Z,102148.77
2018-02-17T01:41:51.752Z,102148.57
2018-02-17T01:44:18.001Z,102144.39
2018-02-17T01:46:44.228Z,102133.50
2018-02-17T01:49:10.398Z,102138.59
2018-02-17T01:51:36.648Z,102140.90
2018-02-17T01:54:02.856Z,102138.30
2018-02-17T01:56:29.023Z,102130.47
2018-02-17T01:58:55.240Z,102125.70
2018-02-17T02:01:21.451Z,102122.04
2018-02-17T02:03:47.595Z,102111.14
2018-02-17T02:06:13.814Z,102112.42
2018-02-17T02:08:40.059Z,102101.19
2018-02-17T02:11:06.215Z,102094.20
2018-02-17T02:13:32.417Z,102096.63
2018-02-17T02:15:58.661Z,102091.21
2018-02-17T02:18:24.868Z,102096.58
2018-02-17T02:20:51.047Z,102093.66
2018-02-17T02:23:17.225Z,102098.98
2018-02-17T02:25:43.388Z,102097.77
2018-02-17T02:28:09.596Z,102095.20
2018-02-17T02:30:35.757Z,102091.42
2018-02-17T02:33:01.916Z,102098.23
2018-02-17T02:35:28.125Z,102088.78
2018-02-17T02:37:54.289Z,102088.72
2018-02-17T02:40:20.436Z,102085.98
2018-02-17T02:42:46.611Z,102084.55
2018-02-17T02:45:12.775Z,102083.19
2018-02-17T02:47:38.981Z,102074.34
2018-02-17T02:50:05.199Z,102076.39
2018-02-17T02:52:31.439Z,102069.34
2018-02-17T02:54:57.634Z,102074.81
2018-02-17T02:57:23.917Z,102083.87
2018-02-17T02:59:50.075Z,102073.91
2018-02-17T03:02:16.202Z,102072.53
2018-02-17T03:04:42.315Z,102069.48
2018-02-17T03:07:08.522Z,102069.00
2018-02-17T03:09:34.656Z,102069.38
2018-02-17T03:12:00.764Z,102063.24
2018-02-17T03:14:26.887Z,102057.98
2018-02-17T03:16:53.080Z,102052.73
2018-02-17T03:19:19.179Z,102053.50
2018-02-17T03:21:45.268Z,102050.41
2018-02-17T03:24:11.413Z,102052.62
2018-02-17T03:26:37.575Z,102047.75
2018-02-17T03:29:03.691Z,102045.61
2018-02-17T03:31:29.840Z,102041.26
2018-02-17T03:33:56.027Z,102040.31
2018-02-17T03:36:22.180Z,102044.14
2018-02-17T03:38:48.349Z,102045.75
2018-02-17T03:41:14.448Z,102040.08
2018-02-17T03:43:40.541Z,102043.58
2018-02-17T03:46:06.681Z,102044.39
2018-02-17T03:48:32.836Z,102041.80
2018-02-17T03:50:58.979Z,102036.53
2018-02-17T03:53:25.107Z,102043.37
2018-02-17T03:55:51.208Z,102039.48
2018-02-17T03:58:17.610Z,102038.57
2018-02-17T04:00:43.785Z,102035.59
2018-02-17T04:03:09.882Z,102034.43
2018-02-17T04:05:36.017Z,102035.83
2018-02-17T04:08:02.210Z,102034.11
2018-02-17T04:10:28.296Z,102018.95
2018-02-17T04:12:54.379Z,102018.02
2018-02-17T04:15:20.580Z,102010.30
2018-02-17T04:17:46.751Z,102013.17
2018-02-17T04:20:12.852Z,102016.61
2018-02-17T04:22:38.983Z,102008.79
2018-02-17T04:25:05.081Z,102013.14
2018-02-17T04:27:31.285Z,102010.38
2018-02-17T04:29:57.407Z,102010.66
2018-02-17T04:32:23.509Z,102007.09
2018-02-17T04:34:49.604Z,101999.59
2018-02-17T04:37:15.762Z,101996.53
2018-02-17T04:39:43.837Z,101993.91
2018-02-17T04:42:10.882Z,101989.17
2018-02-17T04:44:45.952Z,101987.38
2018-02-17T04:47:26.945Z,101987.31
2018-02-17T04:49:53.876Z,101991.11
2018-02-17T04:52:32.770Z,101987.15
2018-02-17T04:54:58.917Z,101987.25
2018-02-17T04:57:31.980Z,101989.04
2018-02-17T05:00:02.962Z,101984.37
2018-02-17T05:02:34.142Z,101990.37
2018-02-17T05:05:06.331Z,101984.72
2018-02-17T05:07:32.529Z,101988.45
2018-02-17T05:09:58.672Z,101984.88
2018-02-17T05:12:24.850Z,101972.73
2018-02-17T05:17:51.891Z,101960.67
2018-02-17T05:20:18.895Z,101957.17
2018-02-17T05:22:48.984Z,101953.31
2018-02-17T05:25:19.104Z,101958.08
2018-02-17T05:27:59.411Z,101959.37
2018-02-17T05:30:26.423Z,101951.21
2018-02-17T05:32:58.502Z,101949.17
2018-02-17T05:35:25.700Z,101954.88
2018-02-17T05:37:51.893Z,101950.95
2018-02-17T05:40:22.934Z,101951.38
2018-02-17T05:42:49.095Z,101953.00
2018-02-17T05:45:18.082Z,101955.55
2018-02-17T05:47:46.189Z,101959.03
2018-02-17T05:50:16.237Z,101966.78
2018-02-17T05:52:42.387Z,101957.14
2018-02-17T05:55:08.543Z,101955.70
2018-02-17T05:57:34.700Z,101946.62
2018-02-17T06:00:00.792Z,101949.36
2018-02-17T06:02:26.892Z,101944.27
2018-02-17T06:04:53.072Z,101944.20
2018-02-17T06:07:19.265Z,101938.20
2018-02-17T06:09:45.371Z,101931.72
2018-02-17T06:12:11.499Z,101938.83
2018-02-17T06:14:37.655Z,101936.23
2018-02-17T06:17:03.851Z,101940.58
2018-02-17T06:19:29.964Z,101940.29
2018-02-17T06:21:56.145Z,101940.33
2018-02-17T06:24:22.278Z,101946.84
2018-02-17T06:26:48.397Z,101946.39
2018-02-17T06:29:14.588Z,101948.53
2018-02-17T06:31:40.698Z,101943.62
2018-02-17T06:34:06.790Z,101943.56
2018-02-17T06:36:32.930Z,101953.06
2018-02-17T06:38:59.104Z,101954.39
2018-02-17T06:41:25.208Z,101956.60
2018-02-17T06:43:51.322Z,101961.05
2018-02-17T06:46:17.455Z,101963.55
2018-02-17T06:48:43.621Z,101955.23
2018-02-17T06:51:09.758Z,101965.55
2018-02-17T06:53:35.914Z,101964.05
2018-02-17T06:56:02.048Z,101969.17
2018-02-17T06:58:28.230Z,101966.70
2018-02-17T07:00:54.348Z,101963.52
2018-02-17T07:03:20.527Z,101976.09
2018-02-17T07:05:46.684Z,101975.36
2018-02-17T07:08:12.852Z,101973.60
2018-02-17T07:10:38.960Z,101976.09
2018-02-17T07:13:05.058Z,101972.17
2018-02-17T07:15:31.205Z,101973.05
2018-02-17T07:17:57.397Z,101978.66
2018-02-17T07:20:23.506Z,101980.77
2018-02-17T07:22:49.607Z,101987.63
2018-02-17T07:25:15.725Z,101985.53
2018-02-17T07:27:41.883Z,101995.91
2018-02-17T07:30:07.975Z,101988.58
2018-02-17T07:32:34.071Z,101987.42
2018-02-17T07:35:00.238Z,101987.94
2018-02-17T07:37:26.418Z,101975.14
2018-02-17T07:39:52.516Z,101982.25
2018-02-17T07:42:18.613Z,101976.80
2018-02-17T07:44:44.791Z,101968.93
2018-02-17T07:47:10.907Z,101973.55
2018-02-17T07:49:37.055Z,101971.60
2018-02-17T07:52:03.228Z,101965.77
2018-02-17T07:54:29.339Z,101965.11
2018-02-17T07:56:56.575Z,101965.34
2018-02-17T07:59:22.701Z,101957.88
2018-02-17T08:01:49.683Z,101956.34
2018-02-17T08:04:15.845Z,101956.58
2018-02-17T08:06:41.969Z,101957.67
2018-02-17T08:09:08.112Z,101963.45
2018-02-17T08:11:34.220Z,101964.16
2018-02-17T08:14:00.321Z,101960.09
2018-02-17T08:16:26.514Z,101967.12
2018-02-17T08:18:52.730Z,101966.54
2018-02-17T08:21:18.849Z,101961.06
2018-02-17T08:23:45.016Z,101962.53
2018-02-17T08:26:11.165Z,101969.18
2018-02-17T08:28:37.345Z,101969.27
2018-02-17T08:31:03.512Z,101971.84
2018-02-17T08:33:29.698Z,101970.37
2018-02-17T08:35:55.887Z,101966.92
2018-02-17T08:38:22.400Z,101973.45
2018-02-17T08:40:48.563Z,101973.95
2018-02-17T08:43:14.705Z,101976.48
2018-02-17T08:45:40.869Z,101982.13
2018-02-17T08:48:07.054Z,101983.04
2018-02-17T08:50:33.236Z,101980.95
2018-02-17T08:52:59.336Z,101983.34
2018-02-17T08:55:25.468Z,101978.36
2018-02-17T08:57:51.650Z,101981.86
2018-02-17T09:00:17.753Z,101980.66
2018-02-17T09:02:43.843Z,101990.13
2018-02-17T09:05:09.987Z,101992.25
2018-02-17T09:07:36.140Z,101989.83
2018-02-17T09:10:02.346Z,101999.32
2018-02-17T09:12:28.480Z,101995.44
2018-02-17T09:14:54.584Z,101993.45
2018-02-17T09:17:20.707Z,101996.20
2018-02-17T09:19:46.873Z,101992.23
2018-02-17T09:22:12.981Z,101986.69
2018-02-17T09:24:39.131Z,101984.52
2018-02-17T09:27:05.230Z,101990.73
2018-02-17T09:29:31.374Z,101994.12
2018-02-17T09:31:57.587Z,101998.44
2018-02-17T09:34:23.687Z,102004.17
2018-02-17T09:36:50.231Z,102001.81
2018-02-17T09:39:16.430Z,102007.09
2018-02-17T09:41:42.558Z,102010.20
2018-02-17T09:44:08.658Z,102004.34
2018-02-17T09:46:34.788Z,102010.69
2018-02-17T09:49:00.945Z,102013.59
2018-02-17T09:51:27.142Z,102009.94
2018-02-17T09:53:53.310Z,102009.72
2018-02-17T09:56:19.442Z,102012.36
2018-02-17T09:58:45.592Z,102014.89
2018-02-17T10:01:11.725Z,102015.44
2018-02-17T10:03:37.859Z,102009.36
2018-02-17T10:06:03.961Z,102007.73
2018-02-17T10:08:30.176Z,102003.75
2018-02-17T10:10:56.292Z,102007.52
2018-02-17T10:13:22.411Z,102017.78
2018-02-17T10:15:48.554Z,102014.94
2018-02-17T10:18:14.781Z,102024.89
2018-02-17T10:20:40.902Z,102021.33
2018-02-17T10:23:07.078Z,102025.97
2018-02-17T10:25:33.159Z,102017.32
2018-02-17T10:27:59.295Z,102015.74
2018-02-17T10:30:25.451Z,102019.41
2018-02-17T10:32:51.554Z,102023.70
2018-02-17T10:35:17.757Z,102021.17
2018-02-17T10:37:43.860Z,102018.20
2018-02-17T10:40:10.022Z,102023.08
2018-02-17T10:42:36.201Z,102029.77
2018-02-17T10:45:02.344Z,102024.67
2018-02-17T10:47:28.452Z,102028.59
2018-02-17T10:49:54.635Z,102023.86
2018-02-17T10:52:20.793Z,102028.58
2018-02-17T10:54:46.921Z,102035.27
2018-02-17T10:57:13.093Z,102038.42
2018-02-17T10:59:39.239Z,102035.66
2018-02-17T11:02:05.380Z,102033.34
2018-02-17T11:04:31.548Z,102037.22
2018-02-17T11:06:57.681Z,102044.01
2018-02-17T11:09:23.818Z,102045.38
2018-02-17T11:11:50.013Z,102045.81
2018-02-17T11:14:16.119Z,102043.28
2018-02-17T11:16:42.241Z,102045.53
2018-02-17T11:19:08.406Z,102048.58
2018-02-17T11:21:34.666Z,102047.41
2018-02-17T11:24:00.767Z,102051.72
2018-02-17T11:26:27.045Z,102054.30
2018-02-17T11:28:53.300Z,102052.08
2018-02-17T11:31:19.520Z,102050.16
2018-02-17T11:33:45.774Z,102046.24
2018-02-17T11:36:11.944Z,102045.16
2018-02-17T11:38:38.211Z,102051.34
2018-02-17T11:41:04.487Z,102043.92
2018-02-17T11:43:30.725Z,102048.06
2018-02-17T11:45:56.911Z,102044.44
2018-02-17T11:48:25.722Z,102047.22
2018-02-17T11:50:51.906Z,102052.07
2018-02-17T11:53:18.776Z,102044.29
2018-02-17T11:55:45.002Z,102046.84
2018-02-17T11:58:11.284Z,102040.95
2018-02-17T12:00:44.465Z,102037.73
2018-02-17T12:03:10.785Z,102043.36
2018-02-17T12:05:37.795Z,102049.30
2018-02-17T12:08:03.982Z,102041.25
2018-02-17T12:10:30.108Z,102032.14
2018-02-17T12:12:56.273Z,102042.82
2018-02-17T12:15:22.374Z,102042.94
2018-02-17T12:17:48.460Z,102030.70
2018-02-17T12:20:14.604Z,102032.27
2018-02-17T12:22:40.739Z,102029.14
2018-02-17T12:25:06.874Z,102021.25
2018-02-17T12:27:33.033Z,102013.24
2018-02-17T12:29:59.126Z,102014.56
2018-02-17T12:32:25.274Z,102006.22
2018-02-17T12:34:51.384Z,102007.55
2018-02-17T12:37:17.497Z,102011.09
2018-02-17T12:39:43.846Z,102006.91
2018-02-17T12:42:10.086Z,102007.70
2018-02-17T12:44:36.194Z,102007.31
2018-02-17T12:47:02.446Z,102014.05
2018-02-17T12:49:28.665Z,102012.66
2018-02-17T12:51:54.980Z,102015.88
2018-02-17T12:54:21.199Z,102010.91
2018-02-17T12:56:47.340Z,102013.61
2018-02-17T12:59:13.728Z,102015.88
2018-02-17T13:01:40.880Z,102007.09
2018-02-17T13:04:07.056Z,102010.50
2018-02-17T13:06:33.231Z,102007.53
2018-02-17T13:08:59.437Z,102008.20
2018-02-17T13:11:25.621Z,102010.92
2018-02-17T13:13:51.788Z,102014.33
2018-02-17T13:16:18.571Z,102010.77
2018-02-17T13:18:44.882Z,102005.55
2018-02-17T13:21:11.024Z,102008.63
2018-02-17T13:23:37.212Z,102004.63
2018-02-17T13:26:03.385Z,102005.15
2018-02-17T13:28:29.601Z,102004.22
2018-02-17T13:30:55.775Z,102005.88
2018-02-17T13:33:22.029Z,102001.94
2018-02-17T13:35:48.202Z,102000.25
2018-02-17T13:38:14.364Z,101996.83
2018-02-17T13:40:40.591Z,101994.25
2018-02-17T13:43:06.805Z,101992.48
2018-02-17T13:45:32.997Z,101992.41
2018-02-17T13:47:59.127Z,101993.77
2018-02-17T13:50:25.331Z,101991.39
2018-02-17T13:52:51.587Z,101992.84
2018-02-17T13:55:17.725Z,101989.98
2018-02-17T13:57:43.931Z,101992.58
2018-02-17T14:00:10.081Z,101991.94
2018-02-17T14:02:36.256Z,101995.77
2018-02-17T14:05:02.465Z,101998.95
2018-02-17T14:07:28.660Z,102000.72
2018-02-17T14:09:54.830Z,102002.05
2018-02-17T14:12:21.028Z,101996.06
2018-02-17T14:14:47.237Z,102003.29
2018-02-17T14:17:13.406Z,102001.53
2018-02-17T14:19:39.571Z,102000.42
2018-02-17T14:22:05.880Z,102002.69
2018-02-17T14:24:32.087Z,102006.34
2018-02-17T14:26:58.239Z,102010.47
2018-02-17T14:29:24.497Z,102010.80
2018-02-17T14:31:50.637Z,102011.12
2018-02-17T14:34:16.847Z,102016.33
2018-02-17T14:36:43.068Z,102009.81
2018-02-17T14:39:09.267Z,102010.77
2018-02-17T14:41:35.400Z,102015.80
2018-02-17T14:44:01.666Z,102021.92
2018-02-17T14:46:27.881Z,102018.85
2018-02-17T14:48:54.056Z,102022.52
2018-02-17T14:51:20.330Z,102025.05
2018-02-17T14:53:46.604Z,102024.97
2018-02-17T14:56:12.760Z,102019.12
2018-02-17T14:58:38.994Z,102024.31
2018-02-17T15:01:05.239Z,102018.56
2018-02-17T15:03:31.492Z,102023.72
2018-02-17T15:05:57.673Z,102021.84
2018-02-17T15:08:23.845Z,102025.73
2018-02-17T15:10:49.993Z,102026.70
2018-02-17T15:13:16.167Z,102033.27
2018-02-17T15:15:42.311Z,102031.92
2018-02-17T15:18:08.450Z,102034.91
2018-02-17T15:20:34.660Z,102035.08
2018-02-17T15:23:00.872Z,102028.02
2018-02-17T15:25:27.040Z,102035.89
2018-02-17T15:27:53.204Z,102040.21
2018-02-17T15:30:19.366Z,102038.38
2018-02-17T15:32:45.567Z,102041.00
2018-02-17T15:35:13.081Z,102039.58
2018-02-17T15:37:39.201Z,102040.44
2018-02-17T15:40:05.392Z,102034.75
2018-02-17T15:42:31.645Z,102036.52
2018-02-17T15:44:57.829Z,102042.20
2018-02-17T15:47:24.000Z,102051.70
2018-02-17T15:49:50.180Z,102046.05
2018-02-17T15:52:23.345Z,102052.97
2018-02-17T15:54:49.485Z,102045.38
2018-02-17T15:57:15.690Z,102055.66
2018-02-17T15:59:41.822Z,102052.07
2018-02-17T16:02:07.957Z,102056.44
2018-02-17T16:04:34.225Z,102057.76
2018-02-17T16:07:00.347Z,102065.59
2018-02-17T16:09:26.543Z,102064.70
2018-02-17T16:21:00.337Z,102075.93
2018-02-17T16:23:26.515Z,102077.53
2018-02-17T16:25:52.585Z,102076.47
2018-02-17T16:28:18.742Z,102085.88
2018-02-17T16:30:44.833Z,102080.02
2018-02-17T16:33:10.979Z,102083.00
2018-02-17T16:35:37.120Z,102086.25
2018-02-17T16:38:03.220Z,102084.14
2018-02-17T16:40:29.306Z,102085.05
2018-02-17T16:42:55.507Z,102090.34
2018-02-17T16:45:21.608Z,102089.48
2018-02-17T16:47:47.699Z,102094.76
2018-02-17T16:50:14.757Z,102095.69
2018-02-17T16:52:40.975Z,102097.06
2018-02-17T16:55:07.166Z,102100.13
2018-02-17T16:57:33.420Z,102107.13
2018-02-17T16:59:59.651Z,102107.51
2018-02-17T17:02:25.855Z,102106.60
2018-02-17T17:04:52.097Z,102108.81
2018-02-17T17:07:18.353Z,102114.98
2018-02-17T17:09:44.521Z,102118.60
2018-02-17T17:12:10.702Z,102126.14
2018-02-17T17:14:36.900Z,102119.28
2018-02-17T17:17:03.128Z,102129.44
2018-02-17T17:19:29.277Z,102129.09
2018-02-17T17:21:55.496Z,102132.71
2018-02-17T17:24:21.708Z,102129.23
2018-02-17T17:26:47.887Z,102139.73
2018-02-17T17:29:14.128Z,102137.06
2018-02-17T17:31:40.294Z,102143.90
2018-02-17T17:34:06.602Z,102154.20
2018-02-17T17:36:32.815Z,102154.60
2018-02-17T17:38:59.104Z,102164.94
2018-02-17T17:41:25.512Z,102167.62
2018-02-17T17:43:51.722Z,102168.61
2018-02-17T17:46:17.962Z,102159.56
2018-02-17T17:48:44.164Z,102164.91
2018-02-17T17:51:10.432Z,102161.94
2018-02-17T17:53:36.664Z,102163.80
2018-02-17T17:56:02.893Z,102172.57
2018-02-17T17:58:29.239Z,102169.63
2018-02-17T18:00:55.426Z,102182.41
2018-02-17T18:03:21.701Z,102171.20
2018-02-17T18:05:47.890Z,102179.22
2018-02-17T18:08:14.052Z,102179.36
2018-02-17T18:10:40.243Z,102185.09
2018-02-17T18:13:06.477Z,102191.34
2018-02-17T18:15:32.659Z,102186.37
2018-02-17T18:17:58.818Z,102193.84
2018-02-17T18:20:25.030Z,102193.59
2018-02-17T18:22:51.221Z,102192.42
2018-02-17T18:25:17.520Z,102199.44
2018-02-17T18:27:43.779Z,102198.72
2018-02-17T18:30:10.132Z,102204.53
2018-02-17T18:32:36.405Z,102208.20
2018-02-17T18:35:02.771Z,102214.04
2018-02-17T18:37:29.071Z,102215.95
2018-02-17T18:39:55.266Z,102213.95
2018-02-17T18:42:21.549Z,102214.91
2018-02-17T18:44:47.782Z,102208.17
2018-02-17T18:47:14.020Z,102217.45
2018-02-17T18:49:40.211Z,102214.64
2018-02-17T18:52:06.537Z,102211.80
2018-02-17T18:54:32.778Z,102216.34
2018-02-17T18:56:58.965Z,102211.77
2018-02-17T18:59:25.209Z,102209.31
2018-02-17T19:01:51.496Z,102217.35
2018-02-17T19:04:17.748Z,102216.30
2018-02-17T19:06:43.961Z,102216.58
2018-02-17T19:09:10.272Z,102220.26
2018-02-17T19:11:36.580Z,102224.36
2018-02-17T19:14:02.870Z,102221.13
2018-02-17T19:16:29.129Z,102216.63
2018-02-17T19:18:55.308Z,102209.92
2018-02-17T19:21:21.592Z,102220.13
2018-02-17T19:23:47.793Z,102223.84
2018-02-17T19:26:13.971Z,102223.55
2018-02-17T19:28:40.282Z,102236.80
2018-02-17T19:31:06.441Z,102239.25
2018-02-17T19:33:32.725Z,102232.72
2018-02-17T19:35:58.930Z,102232.08
2018-02-17T19:38:25.131Z,102236.25
2018-02-17T19:40:51.299Z,102229.15
2018-02-17T19:43:17.549Z,102234.19
2018-02-17T19:45:43.780Z,102240.56
2018-02-17T19:48:10.016Z,102233.02
2018-02-17T19:50:36.300Z,102234.63
2018-02-17T19:53:02.496Z,102242.22
2018-02-17T19:55:28.814Z,102238.20
2018-02-17T19:57:55.106Z,102245.00
2018-02-17T20:00:21.348Z,102243.59
2018-02-17T20:02:47.583Z,102237.37
2018-02-17T20:05:13.787Z,102238.94
2018-02-17T20:07:40.040Z,102240.92
2018-02-17T20:10:06.306Z,102241.98
2018-02-17T20:12:32.490Z,102244.39
2018-02-17T20:14:58.702Z,102254.16
2018-02-17T20:17:24.936Z,102259.69
2018-02-17T20:19:51.103Z,102251.25
2018-02-17T20:22:17.301Z,102257.23
2018-02-17T20:24:43.520Z,102255.33
2018-02-17T20:27:10.048Z,102258.68
2018-02-17T20:29:36.865Z,102258.52
2018-02-17T20:32:04.422Z,102261.88
2018-02-17T20:34:32.611Z,102263.05
2018-02-17T20:37:01.647Z,102261.56
2018-02-17T20:39:29.650Z,102259.61
2018-02-17T20:41:56.007Z,102255.53
2018-02-17T20:44:24.075Z,102258.34
2018-02-17T20:47:01.220Z,102261.16
2018-02-17T20:49:28.113Z,102259.73
2018-02-17T20:51:55.394Z,102256.22
2018-02-17T20:54:23.823Z,102251.47
2018-02-17T20:56:52.678Z,102258.20
2018-02-17T20:59:21.111Z,102255.11
2018-02-17T21:01:48.324Z,102255.03
2018-02-17T21:04:15.636Z,102263.06
2018-02-17T21:06:43.344Z,102263.86
2018-02-17T21:09:10.579Z,102263.28
2018-02-17T21:11:40.186Z,102264.00
2018-02-17T21:14:08.504Z,102263.38
2018-02-17T21:19:13.533Z,102273.45
2018-02-17T21:21:39.949Z,102279.34
2018-02-17T21:24:07.369Z,102276.27
2018-02-17T21:26:34.024Z,102273.20
2018-02-17T21:29:03.356Z,102273.09
2018-02-17T21:31:29.666Z,102277.72
2018-02-17T21:33:58.089Z,102281.61
2018-02-17T21:36:25.767Z,102291.02
2018-02-17T21:38:52.124Z,102293.94
2018-02-17T21:41:21.689Z,102292.94
2018-02-17T21:43:48.350Z,102296.73
2018-02-17T21:46:14.858Z,102295.32
2018-02-17T21:48:41.297Z,102297.28
2018-02-17T21:51:10.880Z,102291.52
2018-02-17T21:53:41.680Z,102288.02
2018-02-17T21:58:44.357Z,102296.73
2018-02-17T22:01:12.333Z,102295.66
2018-02-17T22:03:40.700Z,102298.12
2018-02-17T22:06:09.524Z,102298.12
2018-02-17T22:11:08.575Z,102304.93
2018-02-17T22:13:36.430Z,102313.95
2018-02-17T22:16:04.065Z,102311.69
2018-02-17T22:18:33.057Z,102310.23
2018-02-17T22:20:59.835Z,102307.14
2018-02-17T22:26:00.342Z,102304.29
2018-02-17T22:28:29.783Z,102290.85
2018-02-17T22:30:56.056Z,102289.47
2018-02-17T22:33:22.868Z,102294.94
2018-02-17T22:35:56.386Z,102293.14
2018-02-17T22:38:23.318Z,102292.69
2018-02-17T22:40:50.458Z,102293.52
2018-02-17T22:43:17.551Z,102300.53
2018-02-17T22:45:43.857Z,102308.30
2018-02-17T22:48:10.888Z,102291.02
2018-02-17T22:50:37.612Z,102294.39
2018-02-17T22:53:04.717Z,102298.19
2018-02-17T22:55:32.616Z,102300.23
2018-02-17T22:58:05.203Z,102299.23
2018-02-17T23:00:32.568Z,102302.06
2018-02-17T23:03:01.084Z,102309.53
2018-02-17T23:05:29.096Z,102310.65
2018-02-17T23:08:00.284Z,102316.58
2018-02-17T23:10:26.570Z,102321.70
2018-02-17T23:12:53.628Z,102325.95
2018-02-17T23:15:19.962Z,102321.95
2018-02-17T23:17:48.985Z,102326.98
2018-02-17T23:20:16.509Z,102323.85
2018-02-17T23:22:43.618Z,102319.14
2018-02-17T23:25:12.748Z,102313.88
2018-02-17T23:27:43.802Z,102313.80
2018-02-17T23:30:10.098Z,102317.21
2018-02-17T23:32:40.347Z,102307.98
2018-02-17T23:37:45.025Z,102308.23
2018-02-17T23:40:13.042Z,102312.61
2018-02-17T23:42:41.576Z,102308.73
2018-02-17T23:45:09.086Z,102311.31
2018-02-17T23:47:36.667Z,102316.12
2018-02-17T23:50:03.884Z,102315.73
2018-02-17T23:52:30.623Z,102320.59
2018-02-17T23:54:58.184Z,102324.52
2018-02-17T23:57:24.881Z,102323.17
2018-02-17T23:59:53.164Z,102315.38
